sensor_id;sensor_type;location;lat;lon;timestamp;P1;P2;P0
71858;PMS5003;59713;50.866;4.324;2023-08-08T00:00:06;3;3;
71858;PMS5003;59713;50.866;4.324;2023-08-08T00:01:06;2;2;
71858;PMS5003;59713;50.866;4.324;2023-08-08T00:02:06;2;2;
71858;PMS5003;59713;50.866;4.324;2023-08-08T00:03:06;2;2;
71858;PMS5003;59713;50.866;4.324;2023-08-08T00:04:06;4;4;
71858;PMS5003;59713;50.866;4.324;2023-08-08T00:04:06;4;4;
71858;PMS5003;59713;50.866;4.324;2023-08-08T00:05:06;4;4;
71858;PMS5003;59713;50.866;4.324;2023-08-08T00:06:06;4;4;
71858;PMS5003;59713;50.866;4.324;2023-08-08T00:07:06;2;2;
71858;PMS5003;59713;50.866;4.324;2023-08-08T00:08:06;2;2;
71858;PMS5003;59713;50.866;4.324;2023-08-08T00:09:06;2;2;
71858;PMS5003;59713;50.866;4.324;2023-08-08T00:10:06;2;2;
71858;PMS5003;59713;50.866;4.324;2023-08-08T00:11:06;2;2;
71858;PMS5003;59713;50.866;4.324;2023-08-08T00:12:06;2;2;
71858;PMS5003;59713;50.866;4.324;2023-08-08T00:13:06;4;4;
71858;PMS5003;59713;50.866;4.324;2023-08-08T00:13:06;4;4;
71858;PMS5003;59713;50.866;4.324;2023-08-08T00:14:07;4;4;
71858;PMS5003;59713;50.866;4.324;2023-08-08T00:15:06;4;4;
71858;PMS5003;59713;50.866;4.324;2023-08-08T00:16:06;4;3;
71858;PMS5003;59713;50.866;4.324;2023-08-08T00:17:06;4;3;
71858;PMS5003;59713;50.866;4.324;2023-08-08T00:18:06;4;3;
71858;PMS5003;59713;50.866;4.324;2023-08-08T00:19:06;3;3;
71858;PMS5003;59713;50.866;4.324;2023-08-08T00:20:07;3;3;
71858;PMS5003;59713;50.866;4.324;2023-08-08T00:21:06;3;3;
71858;PMS5003;59713;50.866;4.324;2023-08-08T00:22:06;2;2;
71858;PMS5003;59713;50.866;4.324;2023-08-08T00:22:06;2;2;
71858;PMS5003;59713;50.866;4.324;2023-08-08T00:23:06;2;2;
71858;PMS5003;59713;50.866;4.324;2023-08-08T00:24:06;2;2;
71858;PMS5003;59713;50.866;4.324;2023-08-08T00:25:06;6;4;
71858;PMS5003;59713;50.866;4.324;2023-08-08T00:26:06;6;4;
71858;PMS5003;59713;50.866;4.324;2023-08-08T00:27:06;6;4;
71858;PMS5003;59713;50.866;4.324;2023-08-08T00:28:06;3;2;
71858;PMS5003;59713;50.866;4.324;2023-08-08T00:29:06;3;2;
71858;PMS5003;59713;50.866;4.324;2023-08-08T00:30:06;3;2;
71858;PMS5003;59713;50.866;4.324;2023-08-08T00:31:06;3;3;
71858;PMS5003;59713;50.866;4.324;2023-08-08T00:32:06;3;3;
71858;PMS5003;59713;50.866;4.324;2023-08-08T00:32:06;3;3;
71858;PMS5003;59713;50.866;4.324;2023-08-08T00:33:06;3;3;
71858;PMS5003;59713;50.866;4.324;2023-08-08T00:34:06;7;4;
71858;PMS5003;59713;50.866;4.324;2023-08-08T00:35:06;7;4;
71858;PMS5003;59713;50.866;4.324;2023-08-08T00:36:06;7;4;
71858;PMS5003;59713;50.866;4.324;2023-08-08T00:37:08;3;3;
71858;PMS5003;59713;50.866;4.324;2023-08-08T00:38:06;3;3;
71858;PMS5003;59713;50.866;4.324;2023-08-08T00:39:06;3;3;
71858;PMS5003;59713;50.866;4.324;2023-08-08T00:40:06;5;2;
71858;PMS5003;59713;50.866;4.324;2023-08-08T00:41:06;5;2;
71858;PMS5003;59713;50.866;4.324;2023-08-08T00:41:06;5;2;
71858;PMS5003;59713;50.866;4.324;2023-08-08T00:42:06;5;2;
71858;PMS5003;59713;50.866;4.324;2023-08-08T00:43:06;3;3;
71858;PMS5003;59713;50.866;4.324;2023-08-08T00:44:06;3;3;
71858;PMS5003;59713;50.866;4.324;2023-08-08T00:45:06;3;3;
71858;PMS5003;59713;50.866;4.324;2023-08-08T00:46:06;4;4;
71858;PMS5003;59713;50.866;4.324;2023-08-08T00:47:06;4;4;
71858;PMS5003;59713;50.866;4.324;2023-08-08T00:48:06;4;4;
71858;PMS5003;59713;50.866;4.324;2023-08-08T00:49:06;7;5;
71858;PMS5003;59713;50.866;4.324;2023-08-08T00:50:06;7;5;
71858;PMS5003;59713;50.866;4.324;2023-08-08T00:50:06;7;5;
71858;PMS5003;59713;50.866;4.324;2023-08-08T00:51:06;7;5;
71858;PMS5003;59713;50.866;4.324;2023-08-08T00:52:06;7;4;
71858;PMS5003;59713;50.866;4.324;2023-08-08T00:53:06;7;4;
71858;PMS5003;59713;50.866;4.324;2023-08-08T00:54:06;7;4;
71858;PMS5003;59713;50.866;4.324;2023-08-08T00:55:06;5;5;
71858;PMS5003;59713;50.866;4.324;2023-08-08T00:56:06;5;5;
71858;PMS5003;59713;50.866;4.324;2023-08-08T00:57:06;5;5;
71858;PMS5003;59713;50.866;4.324;2023-08-08T00:58:06;5;3;
71858;PMS5003;59713;50.866;4.324;2023-08-08T00:59:06;5;3;
71858;PMS5003;59713;50.866;4.324;2023-08-08T00:59:06;5;3;
71858;PMS5003;59713;50.866;4.324;2023-08-08T01:00:07;5;3;
71858;PMS5003;59713;50.866;4.324;2023-08-08T01:01:06;4;3;
71858;PMS5003;59713;50.866;4.324;2023-08-08T01:02:06;4;3;
71858;PMS5003;59713;50.866;4.324;2023-08-08T01:03:06;4;3;
71858;PMS5003;59713;50.866;4.324;2023-08-08T01:04:06;6;6;
71858;PMS5003;59713;50.866;4.324;2023-08-08T01:05:06;6;6;
71858;PMS5003;59713;50.866;4.324;2023-08-08T01:06:08;6;6;
71858;PMS5003;59713;50.866;4.324;2023-08-08T01:07:08;2;2;
71858;PMS5003;59713;50.866;4.324;2023-08-08T01:08:06;2;2;
71858;PMS5003;59713;50.866;4.324;2023-08-08T01:08:06;2;2;
71858;PMS5003;59713;50.866;4.324;2023-08-08T01:09:08;2;2;
71858;PMS5003;59713;50.866;4.324;2023-08-08T01:10:07;4;3;
71858;PMS5003;59713;50.866;4.324;2023-08-08T01:11:06;4;3;
71858;PMS5003;59713;50.866;4.324;2023-08-08T01:12:06;4;3;
71858;PMS5003;59713;50.866;4.324;2023-08-08T01:13:07;5;5;
71858;PMS5003;59713;50.866;4.324;2023-08-08T01:14:06;5;5;
71858;PMS5003;59713;50.866;4.324;2023-08-08T01:15:06;5;5;
71858;PMS5003;59713;50.866;4.324;2023-08-08T01:16:06;4;4;
71858;PMS5003;59713;50.866;4.324;2023-08-08T01:17:06;4;4;
71858;PMS5003;59713;50.866;4.324;2023-08-08T01:17:06;4;4;
71858;PMS5003;59713;50.866;4.324;2023-08-08T01:18:07;4;4;
71858;PMS5003;59713;50.866;4.324;2023-08-08T01:19:06;5;5;
71858;PMS5003;59713;50.866;4.324;2023-08-08T01:20:06;5;5;
71858;PMS5003;59713;50.866;4.324;2023-08-08T01:21:06;5;5;
71858;PMS5003;59713;50.866;4.324;2023-08-08T01:22:07;6;4;
71858;PMS5003;59713;50.866;4.324;2023-08-08T01:23:09;6;4;
71858;PMS5003;59713;50.866;4.324;2023-08-08T01:24:15;6;4;
71858;PMS5003;59713;50.866;4.324;2023-08-08T01:25:06;6;5;
71858;PMS5003;59713;50.866;4.324;2023-08-08T01:26:07;6;5;
71858;PMS5003;59713;50.866;4.324;2023-08-08T01:26:07;6;5;
71858;PMS5003;59713;50.866;4.324;2023-08-08T01:27:06;6;5;
71858;PMS5003;59713;50.866;4.324;2023-08-08T01:28:06;5;4;
71858;PMS5003;59713;50.866;4.324;2023-08-08T01:29:06;5;4;
71858;PMS5003;59713;50.866;4.324;2023-08-08T01:30:06;5;4;
71858;PMS5003;59713;50.866;4.324;2023-08-08T01:31:06;5;5;
71858;PMS5003;59713;50.866;4.324;2023-08-08T01:32:06;5;5;
71858;PMS5003;59713;50.866;4.324;2023-08-08T01:33:06;5;5;
71858;PMS5003;59713;50.866;4.324;2023-08-08T01:34:06;3;3;
71858;PMS5003;59713;50.866;4.324;2023-08-08T01:35:06;3;3;
71858;PMS5003;59713;50.866;4.324;2023-08-08T01:35:06;3;3;
71858;PMS5003;59713;50.866;4.324;2023-08-08T01:36:07;3;3;
71858;PMS5003;59713;50.866;4.324;2023-08-08T01:37:07;4;4;
71858;PMS5003;59713;50.866;4.324;2023-08-08T01:38:09;4;4;
71858;PMS5003;59713;50.866;4.324;2023-08-08T01:39:06;4;4;
71858;PMS5003;59713;50.866;4.324;2023-08-08T01:40:06;4;4;
71858;PMS5003;59713;50.866;4.324;2023-08-08T01:41:06;4;4;
71858;PMS5003;59713;50.866;4.324;2023-08-08T01:42:06;4;4;
71858;PMS5003;59713;50.866;4.324;2023-08-08T01:43:06;5;4;
71858;PMS5003;59713;50.866;4.324;2023-08-08T01:44:06;5;4;
71858;PMS5003;59713;50.866;4.324;2023-08-08T01:44:06;5;4;
71858;PMS5003;59713;50.866;4.324;2023-08-08T01:45:06;5;4;
71858;PMS5003;59713;50.866;4.324;2023-08-08T01:46:06;4;4;
71858;PMS5003;59713;50.866;4.324;2023-08-08T01:47:06;4;4;
71858;PMS5003;59713;50.866;4.324;2023-08-08T01:48:07;4;4;
71858;PMS5003;59713;50.866;4.324;2023-08-08T01:49:06;6;5;
71858;PMS5003;59713;50.866;4.324;2023-08-08T01:50:06;6;5;
71858;PMS5003;59713;50.866;4.324;2023-08-08T01:51:06;6;5;
71858;PMS5003;59713;50.866;4.324;2023-08-08T01:52:06;5;5;
71858;PMS5003;59713;50.866;4.324;2023-08-08T01:53:06;5;5;
71858;PMS5003;59713;50.866;4.324;2023-08-08T01:53:06;5;5;
71858;PMS5003;59713;50.866;4.324;2023-08-08T01:54:06;5;5;
71858;PMS5003;59713;50.866;4.324;2023-08-08T01:55:06;4;4;
71858;PMS5003;59713;50.866;4.324;2023-08-08T01:56:06;4;4;
71858;PMS5003;59713;50.866;4.324;2023-08-08T01:57:06;4;4;
71858;PMS5003;59713;50.866;4.324;2023-08-08T01:58:06;6;5;
71858;PMS5003;59713;50.866;4.324;2023-08-08T01:59:06;6;5;
71858;PMS5003;59713;50.866;4.324;2023-08-08T02:00:06;6;5;
71858;PMS5003;59713;50.866;4.324;2023-08-08T02:01:06;7;5;
71858;PMS5003;59713;50.866;4.324;2023-08-08T02:02:06;7;5;
71858;PMS5003;59713;50.866;4.324;2023-08-08T02:02:06;7;5;
71858;PMS5003;59713;50.866;4.324;2023-08-08T02:03:06;7;5;
71858;PMS5003;59713;50.866;4.324;2023-08-08T02:04:06;7;5;
71858;PMS5003;59713;50.866;4.324;2023-08-08T02:05:06;7;5;
71858;PMS5003;59713;50.866;4.324;2023-08-08T02:06:06;7;5;
71858;PMS5003;59713;50.866;4.324;2023-08-08T02:07:06;5;4;
71858;PMS5003;59713;50.866;4.324;2023-08-08T02:08:06;5;4;
71858;PMS5003;59713;50.866;4.324;2023-08-08T02:09:06;5;4;
71858;PMS5003;59713;50.866;4.324;2023-08-08T02:10:06;3;3;
71858;PMS5003;59713;50.866;4.324;2023-08-08T02:11:08;3;3;
71858;PMS5003;59713;50.866;4.324;2023-08-08T02:11:08;3;3;
71858;PMS5003;59713;50.866;4.324;2023-08-08T02:12:06;3;3;
71858;PMS5003;59713;50.866;4.324;2023-08-08T02:13:06;4;4;
71858;PMS5003;59713;50.866;4.324;2023-08-08T02:14:06;4;4;
71858;PMS5003;59713;50.866;4.324;2023-08-08T02:15:06;4;4;
71858;PMS5003;59713;50.866;4.324;2023-08-08T02:16:06;8;4;
71858;PMS5003;59713;50.866;4.324;2023-08-08T02:17:06;8;4;
71858;PMS5003;59713;50.866;4.324;2023-08-08T02:18:06;8;4;
71858;PMS5003;59713;50.866;4.324;2023-08-08T02:19:06;6;5;
71858;PMS5003;59713;50.866;4.324;2023-08-08T02:20:06;6;5;
71858;PMS5003;59713;50.866;4.324;2023-08-08T02:20:06;6;5;
71858;PMS5003;59713;50.866;4.324;2023-08-08T02:21:06;6;5;
71858;PMS5003;59713;50.866;4.324;2023-08-08T02:22:06;5;5;
71858;PMS5003;59713;50.866;4.324;2023-08-08T02:23:06;5;5;
71858;PMS5003;59713;50.866;4.324;2023-08-08T02:24:06;5;5;
71858;PMS5003;59713;50.866;4.324;2023-08-08T02:25:06;10;5;
71858;PMS5003;59713;50.866;4.324;2023-08-08T02:26:06;10;5;
71858;PMS5003;59713;50.866;4.324;2023-08-08T02:27:06;10;5;
71858;PMS5003;59713;50.866;4.324;2023-08-08T02:28:06;7;6;
71858;PMS5003;59713;50.866;4.324;2023-08-08T02:29:06;7;6;
71858;PMS5003;59713;50.866;4.324;2023-08-08T02:29:06;7;6;
71858;PMS5003;59713;50.866;4.324;2023-08-08T02:30:06;7;6;
71858;PMS5003;59713;50.866;4.324;2023-08-08T02:31:06;5;5;
71858;PMS5003;59713;50.866;4.324;2023-08-08T02:32:06;5;5;
71858;PMS5003;59713;50.866;4.324;2023-08-08T02:33:06;5;5;
71858;PMS5003;59713;50.866;4.324;2023-08-08T02:34:06;5;4;
71858;PMS5003;59713;50.866;4.324;2023-08-08T02:35:06;5;4;
71858;PMS5003;59713;50.866;4.324;2023-08-08T02:36:06;5;4;
71858;PMS5003;59713;50.866;4.324;2023-08-08T02:37:06;4;4;
71858;PMS5003;59713;50.866;4.324;2023-08-08T02:38:06;4;4;
71858;PMS5003;59713;50.866;4.324;2023-08-08T02:38:06;4;4;
71858;PMS5003;59713;50.866;4.324;2023-08-08T02:39:06;4;4;
71858;PMS5003;59713;50.866;4.324;2023-08-08T02:40:07;4;4;
71858;PMS5003;59713;50.866;4.324;2023-08-08T02:41:06;4;4;
71858;PMS5003;59713;50.866;4.324;2023-08-08T02:42:06;4;4;
71858;PMS5003;59713;50.866;4.324;2023-08-08T02:43:06;6;5;
71858;PMS5003;59713;50.866;4.324;2023-08-08T02:44:07;6;5;
71858;PMS5003;59713;50.866;4.324;2023-08-08T02:45:06;6;5;
71858;PMS5003;59713;50.866;4.324;2023-08-08T02:46:06;6;5;
71858;PMS5003;59713;50.866;4.324;2023-08-08T02:47:06;6;5;
71858;PMS5003;59713;50.866;4.324;2023-08-08T02:47:06;6;5;
71858;PMS5003;59713;50.866;4.324;2023-08-08T02:48:06;6;5;
71858;PMS5003;59713;50.866;4.324;2023-08-08T02:49:06;4;4;
71858;PMS5003;59713;50.866;4.324;2023-08-08T02:50:06;4;4;
71858;PMS5003;59713;50.866;4.324;2023-08-08T02:51:06;4;4;
71858;PMS5003;59713;50.866;4.324;2023-08-08T02:52:06;4;4;
71858;PMS5003;59713;50.866;4.324;2023-08-08T02:53:06;4;4;
71858;PMS5003;59713;50.866;4.324;2023-08-08T02:54:06;4;4;
71858;PMS5003;59713;50.866;4.324;2023-08-08T02:55:06;4;4;
71858;PMS5003;59713;50.866;4.324;2023-08-08T02:56:06;4;4;
71858;PMS5003;59713;50.866;4.324;2023-08-08T02:56:06;4;4;
71858;PMS5003;59713;50.866;4.324;2023-08-08T02:57:06;4;4;
71858;PMS5003;59713;50.866;4.324;2023-08-08T02:58:06;6;6;
71858;PMS5003;59713;50.866;4.324;2023-08-08T02:59:06;6;6;
71858;PMS5003;59713;50.866;4.324;2023-08-08T03:00:07;6;6;
71858;PMS5003;59713;50.866;4.324;2023-08-08T03:01:06;6;5;
71858;PMS5003;59713;50.866;4.324;2023-08-08T03:02:06;6;5;
71858;PMS5003;59713;50.866;4.324;2023-08-08T03:03:06;6;5;
71858;PMS5003;59713;50.866;4.324;2023-08-08T03:04:06;4;4;
71858;PMS5003;59713;50.866;4.324;2023-08-08T03:05:06;4;4;
71858;PMS5003;59713;50.866;4.324;2023-08-08T03:05:06;4;4;
71858;PMS5003;59713;50.866;4.324;2023-08-08T03:06:06;4;4;
71858;PMS5003;59713;50.866;4.324;2023-08-08T03:07:06;7;5;
71858;PMS5003;59713;50.866;4.324;2023-08-08T03:08:06;7;5;
71858;PMS5003;59713;50.866;4.324;2023-08-08T03:09:06;7;5;
71858;PMS5003;59713;50.866;4.324;2023-08-08T03:10:06;6;4;
71858;PMS5003;59713;50.866;4.324;2023-08-08T03:11:06;6;4;
71858;PMS5003;59713;50.866;4.324;2023-08-08T03:12:07;6;4;
71858;PMS5003;59713;50.866;4.324;2023-08-08T03:13:06;5;5;
71858;PMS5003;59713;50.866;4.324;2023-08-08T03:14:06;5;5;
71858;PMS5003;59713;50.866;4.324;2023-08-08T03:15:07;5;5;
71858;PMS5003;59713;50.866;4.324;2023-08-08T03:15:07;5;5;
71858;PMS5003;59713;50.866;4.324;2023-08-08T03:16:06;8;5;
71858;PMS5003;59713;50.866;4.324;2023-08-08T03:17:06;8;5;
71858;PMS5003;59713;50.866;4.324;2023-08-08T03:18:06;8;5;
71858;PMS5003;59713;50.866;4.324;2023-08-08T03:19:06;6;3;
71858;PMS5003;59713;50.866;4.324;2023-08-08T03:20:06;6;3;
71858;PMS5003;59713;50.866;4.324;2023-08-08T03:21:06;6;3;
71858;PMS5003;59713;50.866;4.324;2023-08-08T03:22:06;6;5;
71858;PMS5003;59713;50.866;4.324;2023-08-08T03:23:06;6;5;
71858;PMS5003;59713;50.866;4.324;2023-08-08T03:24:06;6;5;
71858;PMS5003;59713;50.866;4.324;2023-08-08T03:24:06;6;5;
71858;PMS5003;59713;50.866;4.324;2023-08-08T03:25:07;4;4;
71858;PMS5003;59713;50.866;4.324;2023-08-08T03:26:06;4;4;
71858;PMS5003;59713;50.866;4.324;2023-08-08T03:27:06;4;4;
71858;PMS5003;59713;50.866;4.324;2023-08-08T03:28:06;7;5;
71858;PMS5003;59713;50.866;4.324;2023-08-08T03:29:06;7;5;
71858;PMS5003;59713;50.866;4.324;2023-08-08T03:30:07;7;5;
71858;PMS5003;59713;50.866;4.324;2023-08-08T03:31:06;8;7;
71858;PMS5003;59713;50.866;4.324;2023-08-08T03:32:06;8;7;
71858;PMS5003;59713;50.866;4.324;2023-08-08T03:33:06;8;7;
71858;PMS5003;59713;50.866;4.324;2023-08-08T03:33:06;8;7;
71858;PMS5003;59713;50.866;4.324;2023-08-08T03:34:06;4;4;
71858;PMS5003;59713;50.866;4.324;2023-08-08T03:35:06;4;4;
71858;PMS5003;59713;50.866;4.324;2023-08-08T03:36:06;4;4;
71858;PMS5003;59713;50.866;4.324;2023-08-08T03:37:06;5;3;
71858;PMS5003;59713;50.866;4.324;2023-08-08T03:38:06;5;3;
71858;PMS5003;59713;50.866;4.324;2023-08-08T03:39:06;5;3;
71858;PMS5003;59713;50.866;4.324;2023-08-08T03:40:07;5;5;
71858;PMS5003;59713;50.866;4.324;2023-08-08T03:41:06;5;5;
71858;PMS5003;59713;50.866;4.324;2023-08-08T03:42:06;5;5;
71858;PMS5003;59713;50.866;4.324;2023-08-08T03:42:06;5;5;
71858;PMS5003;59713;50.866;4.324;2023-08-08T03:43:06;8;6;
71858;PMS5003;59713;50.866;4.324;2023-08-08T03:44:06;8;6;
71858;PMS5003;59713;50.866;4.324;2023-08-08T03:45:07;8;6;
71858;PMS5003;59713;50.866;4.324;2023-08-08T03:46:06;4;4;
71858;PMS5003;59713;50.866;4.324;2023-08-08T03:47:06;4;4;
71858;PMS5003;59713;50.866;4.324;2023-08-08T03:48:06;4;4;
71858;PMS5003;59713;50.866;4.324;2023-08-08T03:49:06;7;6;
71858;PMS5003;59713;50.866;4.324;2023-08-08T03:50:06;7;6;
71858;PMS5003;59713;50.866;4.324;2023-08-08T03:51:06;7;6;
71858;PMS5003;59713;50.866;4.324;2023-08-08T03:51:06;7;6;
71858;PMS5003;59713;50.866;4.324;2023-08-08T03:52:06;7;5;
71858;PMS5003;59713;50.866;4.324;2023-08-08T03:53:06;7;5;
71858;PMS5003;59713;50.866;4.324;2023-08-08T03:54:06;7;5;
71858;PMS5003;59713;50.866;4.324;2023-08-08T03:55:06;4;4;
71858;PMS5003;59713;50.866;4.324;2023-08-08T03:56:06;4;4;
71858;PMS5003;59713;50.866;4.324;2023-08-08T03:57:06;4;4;
71858;PMS5003;59713;50.866;4.324;2023-08-08T03:58:06;8;3;
71858;PMS5003;59713;50.866;4.324;2023-08-08T03:59:06;8;3;
71858;PMS5003;59713;50.866;4.324;2023-08-08T04:00:07;8;3;
71858;PMS5003;59713;50.866;4.324;2023-08-08T04:00:07;8;3;
71858;PMS5003;59713;50.866;4.324;2023-08-08T04:01:06;6;6;
71858;PMS5003;59713;50.866;4.324;2023-08-08T04:02:06;6;6;
71858;PMS5003;59713;50.866;4.324;2023-08-08T04:03:06;6;6;
71858;PMS5003;59713;50.866;4.324;2023-08-08T04:04:06;7;6;
71858;PMS5003;59713;50.866;4.324;2023-08-08T04:05:07;7;6;
71858;PMS5003;59713;50.866;4.324;2023-08-08T04:06:06;7;6;
71858;PMS5003;59713;50.866;4.324;2023-08-08T04:07:06;7;6;
71858;PMS5003;59713;50.866;4.324;2023-08-08T04:08:06;7;6;
71858;PMS5003;59713;50.866;4.324;2023-08-08T04:09:06;7;6;
71858;PMS5003;59713;50.866;4.324;2023-08-08T04:10:07;8;7;
71858;PMS5003;59713;50.866;4.324;2023-08-08T04:10:07;8;7;
71858;PMS5003;59713;50.866;4.324;2023-08-08T04:11:06;8;7;
71858;PMS5003;59713;50.866;4.324;2023-08-08T04:12:07;8;7;
71858;PMS5003;59713;50.866;4.324;2023-08-08T04:13:06;7;7;
71858;PMS5003;59713;50.866;4.324;2023-08-08T04:14:06;7;7;
71858;PMS5003;59713;50.866;4.324;2023-08-08T04:15:07;7;7;
71858;PMS5003;59713;50.866;4.324;2023-08-08T04:16:06;5;5;
71858;PMS5003;59713;50.866;4.324;2023-08-08T04:17:06;5;5;
71858;PMS5003;59713;50.866;4.324;2023-08-08T04:18:06;5;5;
71858;PMS5003;59713;50.866;4.324;2023-08-08T04:19:06;5;5;
71858;PMS5003;59713;50.866;4.324;2023-08-08T04:19:06;5;5;
71858;PMS5003;59713;50.866;4.324;2023-08-08T04:20:07;5;5;
71858;PMS5003;59713;50.866;4.324;2023-08-08T04:21:06;5;5;
71858;PMS5003;59713;50.866;4.324;2023-08-08T04:22:06;5;5;
71858;PMS5003;59713;50.866;4.324;2023-08-08T04:23:06;5;5;
71858;PMS5003;59713;50.866;4.324;2023-08-08T04:24:06;5;5;
71858;PMS5003;59713;50.866;4.324;2023-08-08T04:25:06;5;5;
71858;PMS5003;59713;50.866;4.324;2023-08-08T04:26:06;5;5;
71858;PMS5003;59713;50.866;4.324;2023-08-08T04:27:06;5;5;
71858;PMS5003;59713;50.866;4.324;2023-08-08T04:28:06;5;5;
71858;PMS5003;59713;50.866;4.324;2023-08-08T04:28:06;5;5;
71858;PMS5003;59713;50.866;4.324;2023-08-08T04:29:06;5;5;
71858;PMS5003;59713;50.866;4.324;2023-08-08T04:30:07;5;5;
71858;PMS5003;59713;50.866;4.324;2023-08-08T04:31:06;5;4;
71858;PMS5003;59713;50.866;4.324;2023-08-08T04:32:06;5;4;
71858;PMS5003;59713;50.866;4.324;2023-08-08T04:33:06;5;4;
71858;PMS5003;59713;50.866;4.324;2023-08-08T04:34:06;8;7;
71858;PMS5003;59713;50.866;4.324;2023-08-08T04:35:06;8;7;
71858;PMS5003;59713;50.866;4.324;2023-08-08T04:36:06;8;7;
71858;PMS5003;59713;50.866;4.324;2023-08-08T04:37:06;7;5;
71858;PMS5003;59713;50.866;4.324;2023-08-08T04:37:06;7;5;
71858;PMS5003;59713;50.866;4.324;2023-08-08T04:38:06;7;5;
71858;PMS5003;59713;50.866;4.324;2023-08-08T04:39:06;7;5;
71858;PMS5003;59713;50.866;4.324;2023-08-08T04:40:07;12;6;
71858;PMS5003;59713;50.866;4.324;2023-08-08T04:41:06;12;6;
71858;PMS5003;59713;50.866;4.324;2023-08-08T04:42:06;12;6;
71858;PMS5003;59713;50.866;4.324;2023-08-08T04:43:06;4;4;
71858;PMS5003;59713;50.866;4.324;2023-08-08T04:44:06;4;4;
71858;PMS5003;59713;50.866;4.324;2023-08-08T04:45:07;4;4;
71858;PMS5003;59713;50.866;4.324;2023-08-08T04:46:06;7;5;
71858;PMS5003;59713;50.866;4.324;2023-08-08T04:46:06;7;5;
71858;PMS5003;59713;50.866;4.324;2023-08-08T04:47:06;7;5;
71858;PMS5003;59713;50.866;4.324;2023-08-08T04:48:06;7;5;
71858;PMS5003;59713;50.866;4.324;2023-08-08T04:49:06;15;10;
71858;PMS5003;59713;50.866;4.324;2023-08-08T04:50:07;15;10;
71858;PMS5003;59713;50.866;4.324;2023-08-08T04:51:06;15;10;
71858;PMS5003;59713;50.866;4.324;2023-08-08T04:52:06;6;6;
71858;PMS5003;59713;50.866;4.324;2023-08-08T04:53:06;6;6;
71858;PMS5003;59713;50.866;4.324;2023-08-08T04:54:06;6;6;
71858;PMS5003;59713;50.866;4.324;2023-08-08T04:55:07;8;6;
71858;PMS5003;59713;50.866;4.324;2023-08-08T04:55:07;8;6;
71858;PMS5003;59713;50.866;4.324;2023-08-08T04:56:06;8;6;
71858;PMS5003;59713;50.866;4.324;2023-08-08T04:57:06;8;6;
71858;PMS5003;59713;50.866;4.324;2023-08-08T04:58:06;7;7;
71858;PMS5003;59713;50.866;4.324;2023-08-08T04:59:06;7;7;
71858;PMS5003;59713;50.866;4.324;2023-08-08T05:00:07;7;7;
71858;PMS5003;59713;50.866;4.324;2023-08-08T05:01:06;9;4;
71858;PMS5003;59713;50.866;4.324;2023-08-08T05:02:06;9;4;
71858;PMS5003;59713;50.866;4.324;2023-08-08T05:03:06;9;4;
71858;PMS5003;59713;50.866;4.324;2023-08-08T05:04:06;5;5;
71858;PMS5003;59713;50.866;4.324;2023-08-08T05:05:07;5;5;
71858;PMS5003;59713;50.866;4.324;2023-08-08T05:05:07;5;5;
71858;PMS5003;59713;50.866;4.324;2023-08-08T05:06:06;5;5;
71858;PMS5003;59713;50.866;4.324;2023-08-08T05:07:06;7;5;
71858;PMS5003;59713;50.866;4.324;2023-08-08T05:08:06;7;5;
71858;PMS5003;59713;50.866;4.324;2023-08-08T05:09:06;7;5;
71858;PMS5003;59713;50.866;4.324;2023-08-08T05:10:06;6;5;
71858;PMS5003;59713;50.866;4.324;2023-08-08T05:11:06;6;5;
71858;PMS5003;59713;50.866;4.324;2023-08-08T05:12:07;6;5;
71858;PMS5003;59713;50.866;4.324;2023-08-08T05:13:06;8;6;
71858;PMS5003;59713;50.866;4.324;2023-08-08T05:14:06;8;6;
71858;PMS5003;59713;50.866;4.324;2023-08-08T05:14:06;8;6;
71858;PMS5003;59713;50.866;4.324;2023-08-08T05:15:07;8;6;
71858;PMS5003;59713;50.866;4.324;2023-08-08T05:16:06;3;3;
71858;PMS5003;59713;50.866;4.324;2023-08-08T05:17:06;3;3;
71858;PMS5003;59713;50.866;4.324;2023-08-08T05:18:06;3;3;
71858;PMS5003;59713;50.866;4.324;2023-08-08T05:19:06;8;5;
71858;PMS5003;59713;50.866;4.324;2023-08-08T05:20:07;8;5;
71858;PMS5003;59713;50.866;4.324;2023-08-08T05:21:06;8;5;
71858;PMS5003;59713;50.866;4.324;2023-08-08T05:22:06;14;5;
71858;PMS5003;59713;50.866;4.324;2023-08-08T05:23:06;14;5;
71858;PMS5003;59713;50.866;4.324;2023-08-08T05:23:06;14;5;
71858;PMS5003;59713;50.866;4.324;2023-08-08T05:24:06;14;5;
71858;PMS5003;59713;50.866;4.324;2023-08-08T05:25:07;5;5;
71858;PMS5003;59713;50.866;4.324;2023-08-08T05:26:06;5;5;
71858;PMS5003;59713;50.866;4.324;2023-08-08T05:27:06;5;5;
71858;PMS5003;59713;50.866;4.324;2023-08-08T05:28:06;4;4;
71858;PMS5003;59713;50.866;4.324;2023-08-08T05:29:06;4;4;
71858;PMS5003;59713;50.866;4.324;2023-08-08T05:30:07;4;4;
71858;PMS5003;59713;50.866;4.324;2023-08-08T05:31:06;6;5;
71858;PMS5003;59713;50.866;4.324;2023-08-08T05:32:06;6;5;
71858;PMS5003;59713;50.866;4.324;2023-08-08T05:32:07;6;5;
71858;PMS5003;59713;50.866;4.324;2023-08-08T05:33:06;6;5;
71858;PMS5003;59713;50.866;4.324;2023-08-08T05:34:06;9;5;
71858;PMS5003;59713;50.866;4.324;2023-08-08T05:35:07;9;5;
71858;PMS5003;59713;50.866;4.324;2023-08-08T05:36:06;9;5;
71858;PMS5003;59713;50.866;4.324;2023-08-08T05:37:06;7;5;
71858;PMS5003;59713;50.866;4.324;2023-08-08T05:38:06;7;5;
71858;PMS5003;59713;50.866;4.324;2023-08-08T05:39:07;7;5;
71858;PMS5003;59713;50.866;4.324;2023-08-08T05:40:07;7;5;
71858;PMS5003;59713;50.866;4.324;2023-08-08T05:41:06;7;5;
71858;PMS5003;59713;50.866;4.324;2023-08-08T05:41:07;7;5;
71858;PMS5003;59713;50.866;4.324;2023-08-08T05:42:06;7;5;
71858;PMS5003;59713;50.866;4.324;2023-08-08T05:43:06;3;3;
71858;PMS5003;59713;50.866;4.324;2023-08-08T05:44:06;3;3;
71858;PMS5003;59713;50.866;4.324;2023-08-08T05:45:07;3;3;
71858;PMS5003;59713;50.866;4.324;2023-08-08T05:46:06;6;4;
71858;PMS5003;59713;50.866;4.324;2023-08-08T05:47:07;6;4;
71858;PMS5003;59713;50.866;4.324;2023-08-08T05:48:06;6;4;
71858;PMS5003;59713;50.866;4.324;2023-08-08T05:49:06;5;5;
71858;PMS5003;59713;50.866;4.324;2023-08-08T05:50:07;5;5;
71858;PMS5003;59713;50.866;4.324;2023-08-08T05:50:07;5;5;
71858;PMS5003;59713;50.866;4.324;2023-08-08T05:51:06;5;5;
71858;PMS5003;59713;50.866;4.324;2023-08-08T05:52:06;6;5;
71858;PMS5003;59713;50.866;4.324;2023-08-08T05:53:06;6;5;
71858;PMS5003;59713;50.866;4.324;2023-08-08T05:54:06;6;5;
71858;PMS5003;59713;50.866;4.324;2023-08-08T05:55:07;8;6;
71858;PMS5003;59713;50.866;4.324;2023-08-08T05:56:06;8;6;
71858;PMS5003;59713;50.866;4.324;2023-08-08T05:57:06;8;6;
71858;PMS5003;59713;50.866;4.324;2023-08-08T05:58:06;7;4;
71858;PMS5003;59713;50.866;4.324;2023-08-08T05:59:06;7;4;
71858;PMS5003;59713;50.866;4.324;2023-08-08T05:59:06;7;4;
71858;PMS5003;59713;50.866;4.324;2023-08-08T06:00:07;7;4;
71858;PMS5003;59713;50.866;4.324;2023-08-08T06:01:06;5;5;
71858;PMS5003;59713;50.866;4.324;2023-08-08T06:02:06;5;5;
71858;PMS5003;59713;50.866;4.324;2023-08-08T06:03:06;5;5;
71858;PMS5003;59713;50.866;4.324;2023-08-08T06:04:06;8;5;
71858;PMS5003;59713;50.866;4.324;2023-08-08T06:05:07;8;5;
71858;PMS5003;59713;50.866;4.324;2023-08-08T06:06:06;8;5;
71858;PMS5003;59713;50.866;4.324;2023-08-08T06:07:06;6;5;
71858;PMS5003;59713;50.866;4.324;2023-08-08T06:08:06;6;5;
71858;PMS5003;59713;50.866;4.324;2023-08-08T06:08:06;6;5;
71858;PMS5003;59713;50.866;4.324;2023-08-08T06:09:06;6;5;
71858;PMS5003;59713;50.866;4.324;2023-08-08T06:10:07;11;8;